Flight Track Log - Related Links

Times and Time Zones

All times are in EST time to prevent confusion due to time zone crossing. See the UAL1116 flight status page for this flight to view local times or setup timezone preferences in your user account.


Time Position Orientation Groundspeed Altitude Reporting Facility
EST Latitude Longitude Course Direction KTS MPH feet Rate Location/Type
Fri 10:33:58 AM 32.7411 -117.2272 286° West 171 197 1,300  Level Los Angeles Center
Fri 10:35:00 AM 32.7572 -117.2922 286° West 207 238 3,600 2,565 Climbing Los Angeles Center
Fri 10:36:02 AM 32.6981 -117.3147 198° South 266 306 6,600 2,976 Climbing Los Angeles Center
Fri 10:37:03 AM 32.6483 -117.2417 129° Southeast 289 333 9,700 2,390 Climbing Los Angeles Center
Fri 10:38:05 AM 32.6342 -117.1361 99° East 316 364 11,500 1,985 Climbing Los Angeles Center
Fri 10:39:19 AM 32.6147 -117.0133 101° East 367 422 14,200 2,559 Climbing Los Angeles Center
Fri 10:40:21 AM 32.6214 -116.8592 87° East 387 445 17,300 2,829 Climbing Los Angeles Center
Fri 10:41:22 AM 32.7003 -116.7417 51° Northeast 408 470 20,000 2,293 Climbing Los Angeles Center
Fri 10:42:24 AM 32.8025 -116.6769 28° Northeast 411 473 22,000 1,935 Climbing Los Angeles Center
Fri 10:43:26 AM 32.9094 -116.6117 27° Northeast 422 486 24,000 1,659 Climbing Los Angeles Center
Fri 10:44:27 AM 32.9975 -116.5564 28° Northeast 433 498 25,400 1,659 Climbing Los Angeles Center
Fri 10:45:29 AM 33.1328 -116.4719 28° Northeast 447 514 27,400 1,790 Climbing Los Angeles Center
Fri 10:46:31 AM 33.2342 -116.3792 37° Northeast 461 531 29,100 1,694 Climbing Los Angeles Center
Fri 10:47:33 AM 33.3186 -116.2589 50° Northeast 467 537 30,900 1,707 Climbing Los Angeles Center
Fri 10:48:34 AM 33.4006 -116.1411 50° Northeast 462 532 32,600 1,610 Climbing Los Angeles Center
Fri 10:49:36 AM 33.4817 -116.0256 50° Northeast 456 525 34,200 1,258 Climbing Los Angeles Center
Fri 10:50:38 AM 33.5619 -115.9103 50° Northeast 450 518 35,200 1,065 Climbing Los Angeles Center
Fri 10:51:40 AM 33.6600 -115.7706 50° Northeast 456 525 36,400 829 Climbing Los Angeles Center
Fri 10:52:41 AM 33.7400 -115.6522 51° Northeast 457 526 36,900 293 Climbing Los Angeles Center
Fri 10:53:43 AM 33.8214 -115.5347 50° Northeast 458 527 37,000 48 Climbing Los Angeles Center
Fri 10:54:45 AM 33.9028 -115.4158 50° Northeast 460 529 37,000  Level Los Angeles Center
Fri 10:55:46 AM 33.9819 -115.2989 51° Northeast 454 522 37,000  Level Los Angeles Center
Fri 10:56:48 AM 34.0633 -115.1817 50° Northeast 457 526 37,000  Level Los Angeles Center
Fri 10:57:50 AM 34.1433 -115.0636 51° Northeast 455 524 37,000 -48 Level Los Angeles Center
Fri 10:58:52 AM 34.2392 -114.9219 51° Northeast 454 522 36,900  Descending Los Angeles Center
Fri 10:59:53 AM 34.3189 -114.8072 50° Northeast 449 517 37,000 49 Climbing Los Angeles Center
Fri 11:00:55 AM 34.3981 -114.6892 51° Northeast 451 519 37,000  Level Los Angeles Center
Fri 11:01:57 AM 34.4781 -114.5681 51° Northeast 456 525 37,000  Level Los Angeles Center
Fri 11:02:58 AM 34.5586 -114.4506 50° Northeast 456 525 37,000  Level Los Angeles Center
Fri 11:04:00 AM 34.6386 -114.3297 51° Northeast 458 527 37,000  Level Los Angeles Center
Fri 11:05:02 AM 34.7244 -114.1983 51° Northeast 459 528 37,000  Level Los Angeles Center
Fri 11:06:03 AM 34.7967 -114.0700 56° Northeast 461 531 37,000  Level Los Angeles Center
Fri 11:07:05 AM 34.8658 -113.9297 59° Northeast 464 534 37,000  Level Los Angeles Center
Fri 11:08:07 AM 34.9306 -113.7961 59° Northeast 460 529 37,000  Level Los Angeles Center
Fri 11:09:20 AM 34.9953 -113.6625 59° Northeast 459 528 37,000  Level Los Angeles Center
Fri 11:10:22 AM 35.0742 -113.5025 59° Northeast 460 529 37,000  Level Los Angeles Center
Fri 11:11:24 AM 35.1511 -113.3439 59° Northeast 456 525 37,000  Level Los Angeles Center
Fri 11:12:26 AM 35.2133 -113.2144 60° Northeast 457 526 37,000  Level Los Angeles Center
Fri 11:13:28 AM 35.2767 -113.0814 60° Northeast 454 522 37,000  Level Los Angeles Center
Fri 11:14:29 AM 35.3503 -112.9258 60° Northeast 456 525 37,000  Level Los Angeles Center
Fri 11:15:31 AM 35.4147 -112.7903 60° Northeast 459 528 37,000  Level Los Angeles Center
Fri 11:16:33 AM 35.4797 -112.6553 59° Northeast 461 531 37,000  Level Los Angeles Center
Fri 11:17:35 AM 35.5406 -112.5242 60° Northeast 460 529 37,000  Level Los Angeles Center
Fri 11:18:36 AM 35.6044 -112.3886 60° Northeast 459 528 37,000  Level Los Angeles Center
Fri 11:19:38 AM 35.6553 -112.2794 60° Northeast 463 533 37,000  Level Los Angeles Center
Fri 11:20:40 AM 35.7447 -112.0883 60° Northeast 463 533 37,000  Level Los Angeles Center
Fri 11:21:41 AM 35.8089 -111.9514 60° Northeast 465 535 37,000  Level Los Angeles Center
Fri 11:22:43 AM 35.8706 -111.8142 61° Northeast 462 532 37,000  Level Los Angeles Center
Fri 11:23:53 AM 35.9478 -111.6489 60° Northeast 459 528 37,000  Level Denver Center
Fri 11:24:55 AM 36.0094 -111.5144 60° Northeast 455 524 37,000  Level Denver Center
Fri 11:25:57 AM 36.0711 -111.3783 61° Northeast 455 524 37,000  Level Denver Center
Fri 11:26:59 AM 36.1275 -111.2392 63° Northeast 456 525 37,000  Level Denver Center
Fri 11:28:01 AM 36.1606 -111.0833 75° East 466 536 37,000  Level Denver Center
Fri 11:29:03 AM 36.1997 -110.8983 75° East 465 535 37,000  Level Denver Center
Fri 11:30:05 AM 36.2319 -110.7450 75° East 464 534 37,000  Level Denver Center
Fri 11:31:07 AM 36.2631 -110.5914 76° East 462 532 37,000  Level Denver Center
Fri 11:32:09 AM 36.2931 -110.4381 76° East 461 531 37,000  Level Denver Center
Fri 11:33:11 AM 36.3261 -110.2850 75° East 461 531 37,000  Level Denver Center
Fri 11:34:13 AM 36.3642 -110.1019 75° East 462 532 37,000  Level Denver Center
Fri 11:35:15 AM 36.3936 -109.9539 76° East 461 531 37,000  Level Denver Center
Fri 11:36:17 AM 36.4222 -109.8058 76° East 461 531 37,000  Level Denver Center
Fri 11:37:20 AM 36.4569 -109.6317 76° East 464 534 37,000  Level Denver Center
Fri 11:38:22 AM 36.4858 -109.4828 76° East 463 533 37,000  Level Denver Center
Fri 11:39:24 AM 36.5381 -109.3153 69° East 466 536 37,000  Level Denver Center
Fri 11:40:38 AM 36.6122 -109.1322 63° Northeast 463 533 37,000  Level Denver Center
Fri 11:41:40 AM 36.6675 -108.9944 63° Northeast 462 532 37,000  Level Denver Center
Fri 11:42:42 AM 36.7219 -108.8572 64° Northeast 459 528 37,000  Level Denver Center
Fri 11:43:45 AM 36.7856 -108.6956 64° Northeast 463 533 37,000  Level Denver Center
Fri 11:44:47 AM 36.8400 -108.5592 63° Northeast 460 529 37,000  Level Denver Center
Fri 11:45:49 AM 36.9028 -108.4008 64° Northeast 455 524 37,000  Level Denver Center
Fri 11:46:51 AM 36.9558 -108.2667 64° Northeast 451 519 37,000  Level Denver Center
Fri 11:47:53 AM 37.0169 -108.1089 64° Northeast 451 519 37,000  Level Denver Center
Fri 11:48:55 AM 37.0700 -107.9747 64° Northeast 449 517 37,000  Level Denver Center
Fri 11:49:57 AM 37.1308 -107.8150 64° Northeast 452 520 37,000  Level Denver Center
Fri 11:50:59 AM 37.1839 -107.6783 64° Northeast 454 522 37,000  Level Denver Center
Fri 11:52:01 AM 37.2458 -107.5181 64° Northeast 457 526 37,000  Level Denver Center
Fri 11:53:03 AM 37.2978 -107.3819 64° Northeast 453 521 37,000  Level Denver Center
Fri 11:54:05 AM 37.3489 -107.2475 64° Northeast 448 516 37,000  Level Denver Center
Fri 11:55:08 AM 37.4097 -107.0864 65° Northeast 454 522 37,000  Level Denver Center
Fri 11:56:10 AM 37.4611 -106.9478 65° Northeast 455 524 37,000  Level Denver Center
Fri 11:57:12 AM 37.5214 -106.7886 64° Northeast 451 519 37,000  Level Denver Center
Fri 11:58:14 AM 37.5717 -106.6519 65° Northeast 451 519 37,000  Level Denver Center
Fri 11:59:16 AM 37.6308 -106.4933 65° Northeast 448 516 37,000  Level Denver Center
Fri 12:00:30 PM 37.6989 -106.3100 65° Northeast 452 520 37,000  Level Denver Center
Fri 12:01:32 PM 37.7494 -106.1722 65° Northeast 451 519 37,000  Level Denver Center
Fri 12:02:35 PM 37.8061 -106.0175 65° Northeast 450 518 37,000  Level Denver Center
Fri 12:03:37 PM 37.8556 -105.8789 66° East 450 518 37,000  Level Denver Center
Fri 12:04:51 PM 37.9225 -105.6933 65° Northeast 453 521 37,000  Level Denver Center
Fri 12:05:53 PM 37.9725 -105.5558 65° Northeast 450 518 37,000 290 Level Denver Center
Fri 12:06:55 PM 38.0303 -105.3928 66° East 452 520 37,600 871 Climbing Denver Center
Fri 12:07:57 PM 38.0794 -105.2544 66° East 451 519 38,800 672 Climbing Denver Center
Fri 12:09:00 PM 38.1361 -105.0956 66° East 444 511 39,000 64 Climbing Denver Center
Fri 12:11:04 PM 38.2425 -104.7925 65° Northeast 451 519 39,000  Level Denver Center
Fri 12:12:06 PM 38.2906 -104.6556 66° East 445 512 39,000  Level Denver Center
Fri 12:13:08 PM 38.3431 -104.5058 66° East 446 513 39,000  Level Denver Center
Fri 12:14:10 PM 38.3922 -104.3611 67° East 447 514 39,000  Level Denver Center
Fri 12:15:12 PM 38.4431 -104.2125 66° East 455 524 39,000  Level Denver Center
Fri 12:16:14 PM 38.5008 -104.0453 66° East 450 518 39,000  Level Denver Center
Fri 12:17:16 PM 38.5486 -103.9031 67° East 453 521 39,000  Level Denver Center
Fri 12:18:18 PM 38.6056 -103.7369 66° East 455 524 39,000  Level Denver Center
Fri 12:19:20 PM 38.6539 -103.5925 67° East 459 528 39,000  Level Denver Center
Fri 12:20:23 PM 38.7094 -103.4250 67° East 457 526 39,000  Level Denver Center
Fri 12:21:25 PM 38.7628 -103.2647 67° East 459 528 39,000  Level Denver Center
Fri 12:22:27 PM 38.8131 -103.1142 67° East 461 531 39,000  Level Denver Center
Fri 12:23:29 PM 38.8622 -102.9639 67° East 460 529 39,000  Level Denver Center
Fri 12:24:31 PM 38.9122 -102.8103 67° East 467 537 39,000  Level Denver Center
Fri 12:25:33 PM 38.9686 -102.6372 67° East 465 535 39,000  Level Denver Center
Fri 12:26:35 PM 39.0161 -102.4900 67° East 465 535 39,000  Level Denver Center
Fri 12:27:37 PM 39.0711 -102.3192 67° East 462 532 39,000  Level Denver Center
Fri 12:28:39 PM 39.1181 -102.1739 67° East 459 528 39,000  Level Denver Center
Fri 12:29:41 PM 39.1644 -102.0272 68° East 462 532 39,000  Level Denver Center
Fri 12:30:43 PM 39.2183 -101.8583 68° East 457 526 39,000  Level Denver Center
Fri 12:31:45 PM 39.2633 -101.7131 68° East 456 525 39,000  Level Denver Center
Fri 12:32:48 PM 39.3178 -101.5392 68° East 458 527 39,000  Level Denver Center
Fri 12:33:50 PM 39.3636 -101.3931 68° East 460 529 39,000  Level Denver Center
Fri 12:34:52 PM 39.4167 -101.2219 68° East 458 527 39,000  Level Denver Center
Fri 12:35:54 PM 39.4614 -101.0739 69° East 463 533 39,000  Level Denver Center
Fri 12:36:56 PM 39.5147 -100.9025 68° East 461 531 39,000  Level Denver Center
Fri 12:37:58 PM 39.5581 -100.7556 69° East 458 527 39,000  Level Denver Center
Fri 12:39:00 PM 39.6097 -100.5875 68° East 453 521 39,000  Level Denver Center
Fri 12:40:03 PM 39.6531 -100.4450 68° East 448 516 39,000  Level Denver Center
Fri 12:41:05 PM 39.7031 -100.2767 69° East 449 517 39,000  Level Denver Center
Fri 12:42:07 PM 39.7450 -100.1342 69° East 444 511 39,000  Level Denver Center
Fri 12:43:09 PM 39.7944 -99.9669 69° East 443 510 39,000  Level Denver Center
Fri 12:44:11 PM 39.8378 -99.8194 69° East 437 503 39,000  Level Denver Center
Fri 12:45:13 PM 39.8808 -99.6725 69° East 435 501 39,000  Level Denver Center
Fri 12:46:15 PM 39.9236 -99.5236 69° East 439 505 39,000  Level Denver Center
Fri 12:47:17 PM 39.9664 -99.3736 70° East 442 509 39,000  Level Denver Center
Fri 12:48:19 PM 40.0106 -99.2236 69° East 444 511 39,000  Level Denver Center
Fri 12:49:21 PM 40.0611 -99.0422 70° East 445 512 39,000  Level Denver Center
Fri 12:50:25 PM 40.1044 -98.8917 69° East 447 514 39,000  Level Minneapolis Center
Fri 12:51:26 PM 40.1469 -98.7411 70° East 445 512 39,000  Level Minneapolis Center
Fri 12:52:28 PM 40.1897 -98.5892 70° East 445 512 39,000  Level Minneapolis Center
Fri 12:53:30 PM 40.2322 -98.4369 70° East 447 514 39,000  Level Minneapolis Center
Fri 12:54:31 PM 40.2744 -98.2822 70° East 451 519 39,000  Level Minneapolis Center
Fri 12:55:33 PM 40.3250 -98.0967 70° East 453 521 39,000  Level Minneapolis Center
Fri 12:56:35 PM 40.3667 -97.9406 71° East 454 522 39,000  Level Minneapolis Center
Fri 12:57:36 PM 40.4092 -97.7847 70° East 455 524 39,000  Level Minneapolis Center
Fri 12:58:38 PM 40.4522 -97.6278 70° East 457 526 39,000  Level Minneapolis Center
Fri 12:59:40 PM 40.4931 -97.4703 71° East 457 526 39,000  Level Minneapolis Center
Fri 01:00:42 PM 40.5394 -97.2964 71° East 459 528 39,000  Level Minneapolis Center
Fri 01:01:44 PM 40.5822 -97.1369 70° East 462 532 39,000  Level Minneapolis Center
Fri 01:02:45 PM 40.6231 -96.9781 71° East 461 531 39,000  Level Minneapolis Center
Fri 01:03:47 PM 40.6650 -96.8183 71° East 463 533 39,000  Level Minneapolis Center
Fri 01:04:49 PM 40.7064 -96.6606 71° East 460 529 39,000  Level Minneapolis Center
Fri 01:05:51 PM 40.7564 -96.4686 71° East 462 532 39,000  Level Minneapolis Center
Fri 01:06:52 PM 40.7964 -96.3089 72° East 461 531 39,000  Level Minneapolis Center
Fri 01:07:54 PM 40.8375 -96.1497 71° East 461 531 39,000  Level Minneapolis Center
Fri 01:08:56 PM 40.8775 -95.9897 72° East 461 531 39,000  Level Minneapolis Center
Fri 01:09:58 PM 40.9167 -95.8317 72° East 460 529 39,000  Level Minneapolis Center
Fri 01:10:59 PM 40.9558 -95.6731 72° East 458 527 39,000  Level Minneapolis Center
Fri 01:12:01 PM 41.0039 -95.4794 72° East 464 534 39,000  Level Minneapolis Center
Fri 01:13:03 PM 41.0444 -95.3181 72° East 465 535 39,000  Level Minneapolis Center
Fri 01:14:05 PM 41.0836 -95.1578 72° East 463 533 39,000  Level Minneapolis Center
Fri 01:15:07 PM 41.1228 -94.9942 72° East 464 534 39,000  Level Minneapolis Center
Fri 01:16:08 PM 41.1622 -94.8300 72° East 467 537 39,000  Level Minneapolis Center
Fri 01:17:11 PM 41.2019 -94.6656 72° East 468 539 39,000  Level Minneapolis Center
Fri 01:18:12 PM 41.2489 -94.4669 72° East 469 540 39,000  Level Minneapolis Center
Fri 01:19:14 PM 41.2875 -94.3017 73° East 470 541 39,000  Level Minneapolis Center
Fri 01:20:16 PM 41.3239 -94.1400 73° East 468 539 39,000  Level Minneapolis Center
Fri 01:21:18 PM 41.3611 -93.9750 73° East 468 539 39,000  Level Minneapolis Center
Fri 01:22:20 PM 41.4006 -93.8089 72° East 468 539 39,000  Level Minneapolis Center
Fri 01:23:22 PM 41.4383 -93.6442 73° East 468 539 39,000  Level Minneapolis Center
Fri 01:24:24 PM 41.4539 -93.4733 83° East 468 539 39,000  Level Minneapolis Center
Fri 01:25:26 PM 41.4744 -93.2656 82° East 471 542 39,000  Level Minneapolis Center
Fri 01:26:28 PM 41.4903 -93.0936 83° East 470 541 39,000  Level Minneapolis Center
Fri 01:27:30 PM 41.5064 -92.9239 83° East 465 535 39,000  Level Minneapolis Center
Fri 01:28:32 PM 41.5222 -92.7517 83° East 466 536 39,000  Level Minneapolis Center
Fri 01:29:21 PM 41.5344 -92.6156 83° East 468 539 39,000  Level Chicago Center
Fri 01:30:23 PM 41.5486 -92.4450 84° East 466 536 39,000  Level Chicago Center
Fri 01:31:24 PM 41.5678 -92.2400 83° East 467 537 39,000  Level Chicago Center
Fri 01:32:26 PM 41.5819 -92.0689 84° East 467 537 39,000  Level Chicago Center
Fri 01:33:28 PM 41.5964 -91.8958 84° East 472 543 39,000  Level Chicago Center
Fri 01:34:29 PM 41.6097 -91.7231 84° East 473 544 39,000  Level Chicago Center
Fri 01:35:31 PM 41.6244 -91.5492 83° East 474 545 39,000  Level Chicago Center
Fri 01:36:33 PM 41.6378 -91.3772 84° East 473 544 39,000  Level Chicago Center
Fri 01:37:34 PM 41.6544 -91.1711 84° East 472 543 39,000  Level Chicago Center
Fri 01:38:36 PM 41.6667 -90.9961 85° East 475 547 39,000  Level Chicago Center
Fri 01:39:38 PM 41.6800 -90.8256 84° East 468 539 39,000  Level Chicago Center
Fri 01:40:40 PM 41.6914 -90.6536 85° East 468 539 39,000  Level Chicago Center
Fri 01:41:41 PM 41.7044 -90.4717 84° East 469 540 39,000  Level Chicago Center
Fri 01:42:43 PM 41.7167 -90.2964 85° East 471 542 39,000  Level Chicago Center
Fri 01:43:45 PM 41.7292 -90.1225 84° East 469 540 39,000  Level Chicago Center
Fri 01:44:46 PM 41.7400 -89.9461 85° East 474 545 39,000  Level Chicago Center
Fri 01:45:48 PM 41.7525 -89.7706 84° East 473 544 39,000  Level Chicago Center
Fri 01:46:50 PM 41.7658 -89.5575 85° East 477 549 39,000  Level Chicago Center
Fri 01:47:52 PM 41.7767 -89.3753 85° East 474 545 39,000  Level Chicago Center
Fri 01:48:53 PM 41.7875 -89.1981 85° East 475 547 39,000  Level Chicago Center
Fri 01:49:55 PM 41.7975 -89.0208 86° East 477 549 39,000  Level Chicago Center
Fri 01:50:57 PM 41.8064 -88.8458 86° East 473 544 39,000  Level Chicago Center
Fri 01:51:59 PM 41.8158 -88.6675 86° East 477 549 39,000  Level Chicago Center
Fri 01:53:01 PM 41.8253 -88.4889 86° East 479 551 39,000  Level Chicago Center
Fri 01:54:02 PM 41.8342 -88.3103 86° East 479 551 39,000  Level Chicago Center
Fri 01:55:04 PM 41.8436 -88.1297 86° East 482 555 39,000  Level Chicago Center
Fri 01:56:06 PM 41.8547 -87.9169 86° East 474 545 39,000  Level Chicago Center
Fri 01:57:08 PM 41.8631 -87.7392 86° East 475 547 39,000  Level Chicago Center
Fri 01:58:09 PM 41.8711 -87.5619 86° East 475 547 39,000  Level Chicago Center
Fri 01:59:11 PM 41.8783 -87.3847 87° East 475 547 39,000  Level Chicago Center
Fri 02:00:13 PM 41.8858 -87.2069 87° East 477 549 39,000  Level Chicago Center
Fri 02:01:15 PM 41.8928 -87.0303 87° East 476 548 39,000  Level Chicago Center
Fri 02:02:17 PM 41.8997 -86.8531 87° East 476 548 39,000  Level Chicago Center
Fri 02:03:19 PM 41.9067 -86.6478 87° East 478 550 39,000  Level Chicago Center
Fri 02:04:20 PM 41.9136 -86.4706 87° East 477 549 39,000  Level Chicago Center
Fri 02:05:22 PM 41.9200 -86.2922 87° East 478 550 39,000  Level Chicago Center
Fri 02:06:24 PM 41.9261 -86.1125 87° East 481 554 39,000  Level Chicago Center
Fri 02:07:25 PM 41.9308 -85.9325 88° East 482 555 39,000  Level Chicago Center
Fri 02:08:27 PM 41.9369 -85.7517 87° East 484 557 39,000  Level Chicago Center
Fri 02:09:29 PM 41.9419 -85.5694 88° East 485 558 39,000 -48 Level Chicago Center
Fri 02:10:31 PM 41.9464 -85.3864 88° East 485 558 38,900  Descending Chicago Center
Fri 02:11:32 PM 41.9517 -85.2036 88° East 487 560 39,000 49 Climbing Chicago Center
Fri 02:12:34 PM 41.9506 -84.9856 90° East 485 558 39,000  Level Chicago Center
Fri 02:13:36 PM 41.9489 -84.8033 91° East 487 560 39,000  Level Chicago Center
Fri 02:14:38 PM 41.9483 -84.6208 90° East 487 560 39,000  Level Chicago Center
Fri 02:15:39 PM 41.9464 -84.4375 91° East 491 565 39,000  Level Chicago Center
Fri 02:16:41 PM 41.9450 -84.2544 91° East 491 565 39,000  Level Chicago Center
Fri 02:17:48 PM 41.9436 -84.0644 90° East 494 568 39,000  Level Cleveland Center
Fri 02:18:50 PM 41.9400 -83.8436 91° East 498 573 39,000  Level Cleveland Center
Fri 02:19:52 PM 41.9381 -83.6608 91° East 497 572 39,000  Level Cleveland Center
Fri 02:20:53 PM 41.9344 -83.4650 91° East 496 571 39,000  Level Cleveland Center
Fri 02:21:55 PM 41.9342 -83.2772 90° East 498 573 39,000  Level Cleveland Center
Fri 02:22:57 PM 41.9342 -83.1111 90° East 499 574 39,000  Level Cleveland Center
Fri 02:23:59 PM 41.9319 -82.8894 91° East 499 574 39,000  Level Cleveland Center
Fri 02:25:00 PM 41.9292 -82.7025 91° East 504 580 39,000  Level Cleveland Center
Fri 02:26:02 PM 41.9286 -82.5133 90° East 509 586 39,000  Level Cleveland Center
Fri 02:27:04 PM 41.9244 -82.3242 92° East 509 586 39,000  Level Cleveland Center
Fri 02:28:05 PM 41.9219 -82.1339 91° East 511 588 39,000  Level Cleveland Center
Fri 02:29:07 PM 41.9175 -81.9033 91° East 517 595 39,000  Level Cleveland Center
Fri 02:30:09 PM 41.9056 -81.7067 95° East 521 600 39,000 -390 Level Cleveland Center
Fri 02:31:10 PM 41.8878 -81.5122 97° East 520 598 38,200 -488 Descending Cleveland Center
Fri 02:32:12 PM 41.8706 -81.3222 97° East 511 588 38,000 -97 Descending Cleveland Center
Fri 02:33:14 PM 41.8533 -81.1342 97° East 504 580 38,000  Level Cleveland Center
Fri 02:34:15 PM 41.8369 -80.9464 97° East 502 578 38,000  Level Cleveland Center
Fri 02:35:17 PM 41.8189 -80.7553 97° East 508 585 38,000  Level Cleveland Center
Fri 02:36:19 PM 41.7986 -80.5628 98° East 514 592 38,000  Level Cleveland Center
Fri 02:37:20 PM 41.7792 -80.3692 98° East 519 597 38,000  Level Cleveland Center
Fri 02:38:22 PM 41.7606 -80.1750 97° East 522 601 38,000  Level Cleveland Center
Fri 02:39:23 PM 41.7397 -79.9792 98° East 525 604 38,000  Level Cleveland Center
Fri 02:40:25 PM 41.7203 -79.7819 97° East 529 609 38,000  Level Cleveland Center
Fri 02:41:26 PM 41.6975 -79.5778 98° East 532 612 38,000  Level Cleveland Center
Fri 02:42:28 PM 41.6753 -79.3800 98° East 536 617 38,000  Level Cleveland Center
Fri 02:43:30 PM 41.6533 -79.1803 98° East 543 625 38,000  Level Cleveland Center
Fri 02:44:31 PM 41.6269 -78.9417 98° East 541 623 38,000  Level Cleveland Center
Fri 02:45:33 PM 41.6033 -78.7397 99° East 547 629 38,000 -439 Level Cleveland Center
Fri 02:46:34 PM 41.5803 -78.5403 99° East 543 625 37,100 -927 Descending Cleveland Center
Fri 02:47:36 PM 41.5564 -78.3406 99° East 541 623 36,100 -919 Descending Cleveland Center
Fri 02:48:38 PM 41.5325 -78.1467 99° East 532 612 35,200 -1,073 Descending Cleveland Center
Fri 02:49:39 PM 41.5111 -77.9581 99° East 521 600 33,900 -1,415 Descending Cleveland Center
Fri 02:50:41 PM 41.4850 -77.7739 101° East 510 587 32,300 -1,512 Descending Cleveland Center
Fri 02:51:42 PM 41.4572 -77.5869 101° East 511 588 30,800 -1,220 Descending Cleveland Center
Fri 02:52:44 PM 41.4306 -77.4014 101° East 511 588 29,800 -1,024 Descending Cleveland Center
Fri 02:53:45 PM 41.4042 -77.2219 101° East 499 574 28,700 -1,122 Descending Cleveland Center
Fri 02:54:47 PM 41.3725 -77.0094 101° East 490 564 27,500 -1,073 Descending Cleveland Center
Fri 02:55:48 PM 41.3475 -76.8347 101° East 484 557 26,500 -976 Descending Cleveland Center
Fri 02:56:50 PM 41.3075 -76.6617 107° East 487 560 25,500 -1,366 Descending Cleveland Center
Fri 02:57:51 PM 41.2628 -76.4950 110° East 482 555 23,700 -1,902 Descending Cleveland Center
Fri 02:58:53 PM 41.2192 -76.3350 110° East 466 536 21,600 -2,162 Descending Cleveland Center
Fri 03:00:07 PM 41.1631 -76.1286 110° East 468 539 18,800 -1,657 Descending New York Center
Fri 03:01:07 PM 41.1219 -75.9767 110° East 440 506 17,900 -1,000 Descending New York Center
Fri 03:02:07 PM 41.0883 -75.8419 108° East 434 499 16,800 -1,750 Descending New York Center
Fri 03:03:07 PM 41.0428 -75.6844 111° Southeast 426 490 14,400 -1,900 Descending New York Center
Fri 03:04:07 PM 41.0119 -75.5722 110° East 409 471 13,000 -850 Descending New York Center
Fri 03:05:07 PM 40.9681 -75.4208 111° Southeast 378 435 12,700 -1,000 Descending New York Center
Fri 03:06:07 PM 40.9389 -75.3089 109° East 357 411 11,000 -1,250 Descending New York Center
Fri 03:07:07 PM 40.9058 -75.1942 111° Southeast 347 399 10,200 -1,250 Descending New York Center
Fri 03:08:07 PM 40.8728 -75.0767 110° East 320 368 8,500 -1,500 Descending New York Center
Fri 03:09:07 PM 40.8431 -74.9761 111° Southeast 304 350 7,200 -750 Descending New York Center
Fri 03:10:07 PM 40.8194 -74.8731 107° East 297 342 7,000 -100 Descending New York Center
Fri 03:11:07 PM 40.7997 -74.7814 106° East 292 336 7,000 -750 Level New York Center
Fri 03:12:07 PM 40.7614 -74.6806 117° Southeast 284 327 5,500 -1,000 Descending New York Center
Fri 03:13:07 PM 40.6983 -74.6358 152° Southeast 274 315 5,000 -400 Descending New York Center
Fri 03:14:07 PM 40.6231 -74.5797 150° Southeast 280 322 4,700 -605 Descending New York Center
Fri 03:15:06 PM 40.5500 -74.5333 154° Southeast 284 327 3,800 -903 Descending New York TRACON
Fri 03:16:00 PM 40.5000 -74.4833 143° Southeast 272 313 3,000 -421 Descending New York TRACON
Fri 03:17:00 PM 40.4500 -74.4167 135° Southeast 214 246 3,000  Level New York TRACON
Fri 03:18:00 PM 40.4333 -74.3500 108° East 192 221 3,000  Level New York TRACON
Fri 03:19:00 PM 40.4667 -74.3000 49° Northeast 166 191 3,000  Level New York TRACON
Fri 03:19:54 PM 40.5000 -74.2833 21° North 166 191 3,000  Level New York TRACON
Fri 03:20:54 PM 40.5500 -74.2500 27° Northeast 168 193 3,000 -400 Level New York TRACON
Fri 03:21:54 PM 40.5833 -74.2333 21° North 162 186 2,200 -842 Descending New York TRACON
Fri 03:22:48 PM 40.6167 -74.2167 21° North 155 178 1,400 -900 Descending New York TRACON
Fri 03:23:54 PM 40.6667 -74.1833 27° Northeast 140 161 400 -909 Descending New York TRACON
Fri 03:26:00 PM 40.6833 -74.1667 23° Northeast  Level FlightAware Approximate

Login

Don't have an account? Register now (free) for customized features, flight alerts, and more!